Eatonville, Washington
Current Conditions -  °F | °C
As of 2:58 PM on Sunday 21 Dec 2014 (Local Time) from KGRF Reporting Station
Broken Clouds Broken Clouds  
Wind Chill: 53°   Ceiling: 4000
Heat Index: 53°   Visibility: 10mi
Dew Point: 48°   Wind: 5mph
Humidity: 86%   Direction: 260°W
Pressure: 30.04"   Gusts: NA
Location:  46.87°N, 122.27°W
Report Text: KGRF 212258Z 26004KT 10SM BKN040 BKN048 BKN060 11/09 A3004 RMK AO2A WND DATA ESTMD SLP177 T01140091 $
Loading
Personal Weather Stations






























Interactive Weather Map New forecast layout! Learn more

10-Day Weather Forecast

Advertisements
Track Severe Weather on mobile